sensor_id;sensor_type;location;lat;lon;timestamp;pressure;altitude;pressure_sealevel;temperature;humidity
18500;BME280;9379;52.134;11.576;2024-01-07T00:01:08;101120.63;;;2.71;97.50
18500;BME280;9379;52.134;11.576;2024-01-07T00:03:35;101116.13;;;2.73;97.51
18500;BME280;9379;52.134;11.576;2024-01-07T00:06:03;101119.34;;;2.80;97.25
18500;BME280;9379;52.134;11.576;2024-01-07T00:08:30;101125.34;;;2.82;97.15
18500;BME280;9379;52.134;11.576;2024-01-07T00:10:56;101132.34;;;2.45;96.98
18500;BME280;9379;52.134;11.576;2024-01-07T00:13:25;101124.00;;;2.73;96.67
18500;BME280;9379;52.134;11.576;2024-01-07T00:15:52;101130.13;;;2.55;96.85
18500;BME280;9379;52.134;11.576;2024-01-07T00:18:21;101142.38;;;2.92;96.88
18500;BME280;9379;52.134;11.576;2024-01-07T00:20:49;101138.31;;;3.21;95.40
18500;BME280;9379;52.134;11.576;2024-01-07T00:23:16;101140.13;;;3.38;94.67
18500;BME280;9379;52.134;11.576;2024-01-07T00:25:43;101147.44;;;2.59;96.42
18500;BME280;9379;52.134;11.576;2024-01-07T00:28:10;101139.03;;;2.88;97.36
18500;BME280;9379;52.134;11.576;2024-01-07T00:30:38;101141.13;;;2.99;96.46
18500;BME280;9379;52.134;11.576;2024-01-07T00:33:05;101146.38;;;2.44;96.92
18500;BME280;9379;52.134;11.576;2024-01-07T00:35:32;101159.56;;;2.61;97.23
18500;BME280;9379;52.134;11.576;2024-01-07T00:37:59;101153.66;;;2.75;96.92
18500;BME280;9379;52.134;11.576;2024-01-07T00:40:25;101154.16;;;2.83;96.21
18500;BME280;9379;52.134;11.576;2024-01-07T00:42:52;101160.13;;;2.68;96.26
18500;BME280;9379;52.134;11.576;2024-01-07T00:45:19;101163.47;;;2.72;97.15
18500;BME280;9379;52.134;11.576;2024-01-07T00:47:48;101161.94;;;2.66;96.54
18500;BME280;9379;52.134;11.576;2024-01-07T00:50:15;101169.25;;;2.41;96.59
18500;BME280;9379;52.134;11.576;2024-01-07T00:52:42;101177.47;;;2.52;96.73
18500;BME280;9379;52.134;11.576;2024-01-07T00:55:11;101172.63;;;2.24;98.28
18500;BME280;9379;52.134;11.576;2024-01-07T00:57:37;101179.75;;;2.41;97.13
18500;BME280;9379;52.134;11.576;2024-01-07T01:00:05;101185.59;;;1.88;97.91
18500;BME280;9379;52.134;11.576;2024-01-07T01:02:33;101185.06;;;2.39;96.87
18500;BME280;9379;52.134;11.576;2024-01-07T01:05:03;101184.78;;;2.64;96.40
18500;BME280;9379;52.134;11.576;2024-01-07T01:07:30;101191.19;;;2.58;94.93
18500;BME280;9379;52.134;11.576;2024-01-07T01:09:57;101198.63;;;2.10;95.88
18500;BME280;9379;52.134;11.576;2024-01-07T01:12:24;101195.66;;;2.17;96.35
18500;BME280;9379;52.134;11.576;2024-01-07T01:14:51;101199.47;;;2.10;96.62
18500;BME280;9379;52.134;11.576;2024-01-07T01:17:18;101210.47;;;2.57;96.77
18500;BME280;9379;52.134;11.576;2024-01-07T01:19:45;101208.19;;;2.50;97.46
18500;BME280;9379;52.134;11.576;2024-01-07T01:22:14;101213.53;;;2.28;95.69
18500;BME280;9379;52.134;11.576;2024-01-07T01:24:41;101211.16;;;2.42;96.61
18500;BME280;9379;52.134;11.576;2024-01-07T01:27:09;101219.81;;;2.44;95.29
18500;BME280;9379;52.134;11.576;2024-01-07T01:29:36;101220.75;;;2.02;94.23
18500;BME280;9379;52.134;11.576;2024-01-07T01:32:04;101220.78;;;2.42;94.41
18500;BME280;9379;52.134;11.576;2024-01-07T01:34:31;101225.78;;;2.27;93.85
18500;BME280;9379;52.134;11.576;2024-01-07T01:36:58;101230.94;;;2.49;95.47
18500;BME280;9379;52.134;11.576;2024-01-07T01:39:27;101230.63;;;2.76;93.90
18500;BME280;9379;52.134;11.576;2024-01-07T01:41:54;101237.22;;;2.06;94.85
18500;BME280;9379;52.134;11.576;2024-01-07T01:44:22;101233.97;;;2.20;94.57
18500;BME280;9379;52.134;11.576;2024-01-07T01:46:49;101250.16;;;2.50;93.63
18500;BME280;9379;52.134;11.576;2024-01-07T01:49:16;101238.97;;;2.46;93.35
18500;BME280;9379;52.134;11.576;2024-01-07T01:51:43;101238.13;;;2.05;93.10
18500;BME280;9379;52.134;11.576;2024-01-07T01:54:11;101243.91;;;2.13;94.46
18500;BME280;9379;52.134;11.576;2024-01-07T01:56:40;101238.75;;;2.30;92.98
18500;BME280;9379;52.134;11.576;2024-01-07T01:59:07;101240.25;;;1.97;93.21
18500;BME280;9379;52.134;11.576;2024-01-07T02:01:35;101243.97;;;2.32;92.53
18500;BME280;9379;52.134;11.576;2024-01-07T02:04:02;101243.59;;;2.00;91.45
18500;BME280;9379;52.134;11.576;2024-01-07T02:06:29;101244.09;;;1.88;90.56
18500;BME280;9379;52.134;11.576;2024-01-07T02:08:56;101248.53;;;2.07;89.90
18500;BME280;9379;52.134;11.576;2024-01-07T02:11:23;101244.59;;;1.96;90.91
18500;BME280;9379;52.134;11.576;2024-01-07T02:13:52;101250.91;;;2.33;91.03
18500;BME280;9379;52.134;11.576;2024-01-07T02:16:19;101249.63;;;2.23;89.64
18500;BME280;9379;52.134;11.576;2024-01-07T02:18:46;101251.78;;;2.13;90.32
18500;BME280;9379;52.134;11.576;2024-01-07T02:21:13;101256.34;;;2.49;89.43
18500;BME280;9379;52.134;11.576;2024-01-07T02:23:41;101256.63;;;2.02;91.02
18500;BME280;9379;52.134;11.576;2024-01-07T02:26:09;101258.78;;;2.13;89.65
18500;BME280;9379;52.134;11.576;2024-01-07T02:28:36;101251.31;;;2.03;91.13
18500;BME280;9379;52.134;11.576;2024-01-07T02:31:03;101263.66;;;2.22;90.15
18500;BME280;9379;52.134;11.576;2024-01-07T02:33:30;101270.84;;;2.37;88.38
18500;BME280;9379;52.134;11.576;2024-01-07T02:35:57;101272.00;;;2.50;89.31
18500;BME280;9379;52.134;11.576;2024-01-07T02:38:23;101273.59;;;1.71;90.66
18500;BME280;9379;52.134;11.576;2024-01-07T02:40:50;101279.03;;;1.67;92.22
18500;BME280;9379;52.134;11.576;2024-01-07T02:43:19;101276.78;;;1.80;90.06
18500;BME280;9379;52.134;11.576;2024-01-07T02:45:46;101284.09;;;2.14;90.34
18500;BME280;9379;52.134;11.576;2024-01-07T02:48:12;101282.53;;;2.10;88.35
18500;BME280;9379;52.134;11.576;2024-01-07T02:50:39;101289.53;;;2.09;89.48
18500;BME280;9379;52.134;11.576;2024-01-07T02:53:07;101287.88;;;1.86;89.52
18500;BME280;9379;52.134;11.576;2024-01-07T02:55:36;101289.66;;;2.06;88.04
18500;BME280;9379;52.134;11.576;2024-01-07T02:58:03;101292.69;;;1.75;89.79
18500;BME280;9379;52.134;11.576;2024-01-07T03:00:32;101298.09;;;1.92;88.90
18500;BME280;9379;52.134;11.576;2024-01-07T03:02:58;101297.09;;;1.95;89.75
18500;BME280;9379;52.134;11.576;2024-01-07T03:05:25;101298.88;;;1.94;89.36
18500;BME280;9379;52.134;11.576;2024-01-07T03:07:54;101313.31;;;1.83;88.22
18500;BME280;9379;52.134;11.576;2024-01-07T03:10:21;101304.59;;;2.04;89.53
18500;BME280;9379;52.134;11.576;2024-01-07T03:12:48;101301.91;;;2.05;89.40
18500;BME280;9379;52.134;11.576;2024-01-07T03:15:15;101308.84;;;1.86;88.18
18500;BME280;9379;52.134;11.576;2024-01-07T03:17:43;101307.25;;;1.82;88.48
18500;BME280;9379;52.134;11.576;2024-01-07T03:20:11;101316.94;;;1.80;89.40
18500;BME280;9379;52.134;11.576;2024-01-07T03:22:38;101312.69;;;1.56;88.57
18500;BME280;9379;52.134;11.576;2024-01-07T03:25:06;101311.06;;;1.30;87.72
18500;BME280;9379;52.134;11.576;2024-01-07T03:27:33;101325.16;;;1.49;87.16
18500;BME280;9379;52.134;11.576;2024-01-07T03:30:00;101326.19;;;1.45;86.96
18500;BME280;9379;52.134;11.576;2024-01-07T03:32:27;101329.03;;;1.62;87.51
18500;BME280;9379;52.134;11.576;2024-01-07T03:34:55;101328.31;;;1.57;87.72
18500;BME280;9379;52.134;11.576;2024-01-07T03:37:22;101333.41;;;1.38;86.99
18500;BME280;9379;52.134;11.576;2024-01-07T03:39:49;101328.38;;;1.10;87.78
18500;BME280;9379;52.134;11.576;2024-01-07T03:42:15;101342.44;;;1.08;87.20
18500;BME280;9379;52.134;11.576;2024-01-07T03:44:42;101341.78;;;1.48;86.24
18500;BME280;9379;52.134;11.576;2024-01-07T03:47:09;101342.25;;;1.36;86.22
18500;BME280;9379;52.134;11.576;2024-01-07T03:49:36;101340.06;;;1.47;85.86
18500;BME280;9379;52.134;11.576;2024-01-07T03:52:06;101344.06;;;1.34;85.36
18500;BME280;9379;52.134;11.576;2024-01-07T03:54:33;101347.78;;;1.52;84.84
18500;BME280;9379;52.134;11.576;2024-01-07T03:57:00;101351.50;;;1.90;85.02
18500;BME280;9379;52.134;11.576;2024-01-07T03:59:27;101350.88;;;1.83;84.68
18500;BME280;9379;52.134;11.576;2024-01-07T04:01:56;101352.84;;;1.78;85.37
18500;BME280;9379;52.134;11.576;2024-01-07T04:04:23;101354.44;;;1.13;84.89
18500;BME280;9379;52.134;11.576;2024-01-07T04:06:50;101349.84;;;1.20;85.95
18500;BME280;9379;52.134;11.576;2024-01-07T04:09:18;101355.97;;;1.42;85.84
18500;BME280;9379;52.134;11.576;2024-01-07T04:11:45;101360.13;;;1.48;85.28
18500;BME280;9379;52.134;11.576;2024-01-07T04:14:14;101355.06;;;1.43;83.63
18500;BME280;9379;52.134;11.576;2024-01-07T04:16:41;101370.84;;;1.19;84.74
18500;BME280;9379;52.134;11.576;2024-01-07T04:19:10;101365.94;;;1.33;83.48
18500;BME280;9379;52.134;11.576;2024-01-07T04:21:37;101370.84;;;1.42;83.19
18500;BME280;9379;52.134;11.576;2024-01-07T04:24:05;101374.44;;;1.16;83.68
18500;BME280;9379;52.134;11.576;2024-01-07T04:26:33;101377.53;;;1.02;83.55
18500;BME280;9379;52.134;11.576;2024-01-07T04:29:00;101381.19;;;1.22;84.62
18500;BME280;9379;52.134;11.576;2024-01-07T04:31:27;101380.63;;;1.37;83.17
18500;BME280;9379;52.134;11.576;2024-01-07T04:33:53;101380.97;;;1.51;82.32
18500;BME280;9379;52.134;11.576;2024-01-07T04:36:20;101381.78;;;1.06;83.48
18500;BME280;9379;52.134;11.576;2024-01-07T04:38:47;101380.09;;;1.27;82.57
18500;BME280;9379;52.134;11.576;2024-01-07T04:41:14;101393.03;;;1.08;83.17
18500;BME280;9379;52.134;11.576;2024-01-07T04:43:43;101399.78;;;1.14;82.95
18500;BME280;9379;52.134;11.576;2024-01-07T04:46:11;101404.63;;;1.25;81.71
18500;BME280;9379;52.134;11.576;2024-01-07T04:48:38;101401.16;;;1.01;81.87
18500;BME280;9379;52.134;11.576;2024-01-07T04:51:05;101404.06;;;0.93;81.83
18500;BME280;9379;52.134;11.576;2024-01-07T04:53:32;101404.06;;;0.93;82.42
18500;BME280;9379;52.134;11.576;2024-01-07T04:55:58;101412.84;;;0.91;81.39
18500;BME280;9379;52.134;11.576;2024-01-07T04:58:25;101411.75;;;0.73;82.93
18500;BME280;9379;52.134;11.576;2024-01-07T05:00:54;101415.53;;;0.64;83.04
18500;BME280;9379;52.134;11.576;2024-01-07T05:03:20;101425.63;;;0.75;82.90
18500;BME280;9379;52.134;11.576;2024-01-07T05:05:47;101427.91;;;1.09;83.43
18500;BME280;9379;52.134;11.576;2024-01-07T05:08:14;101422.47;;;0.65;81.33
18500;BME280;9379;52.134;11.576;2024-01-07T05:10:41;101427.91;;;0.59;83.44
18500;BME280;9379;52.134;11.576;2024-01-07T05:13:08;101431.41;;;0.84;82.84
18500;BME280;9379;52.134;11.576;2024-01-07T05:15:35;101434.22;;;0.78;81.71
18500;BME280;9379;52.134;11.576;2024-01-07T05:18:07;101433.88;;;0.63;82.43
18500;BME280;9379;52.134;11.576;2024-01-07T05:20:34;101441.84;;;0.60;81.82
18500;BME280;9379;52.134;11.576;2024-01-07T05:23:01;101439.25;;;0.84;82.67
18500;BME280;9379;52.134;11.576;2024-01-07T05:25:28;101441.81;;;0.86;82.62
18500;BME280;9379;52.134;11.576;2024-01-07T05:27:55;101449.16;;;0.75;82.77
18500;BME280;9379;52.134;11.576;2024-01-07T05:30:22;101446.91;;;0.64;81.41
18500;BME280;9379;52.134;11.576;2024-01-07T05:32:49;101454.88;;;0.86;82.87
18500;BME280;9379;52.134;11.576;2024-01-07T05:35:17;101467.66;;;0.70;82.77
18500;BME280;9379;52.134;11.576;2024-01-07T05:37:44;101460.44;;;0.50;81.55
18500;BME280;9379;52.134;11.576;2024-01-07T05:40:11;101458.03;;;0.44;81.80
18500;BME280;9379;52.134;11.576;2024-01-07T05:42:38;101464.66;;;0.54;82.17
18500;BME280;9379;52.134;11.576;2024-01-07T05:45:06;101455.63;;;0.90;82.15
18500;BME280;9379;52.134;11.576;2024-01-07T05:47:33;101469.44;;;0.95;81.37
18500;BME280;9379;52.134;11.576;2024-01-07T05:50:00;101472.53;;;1.06;80.90
18500;BME280;9379;52.134;11.576;2024-01-07T05:52:28;101478.63;;;0.81;80.38
18500;BME280;9379;52.134;11.576;2024-01-07T05:54:55;101486.84;;;0.69;81.32
18500;BME280;9379;52.134;11.576;2024-01-07T05:57:22;101490.00;;;0.79;80.68
18500;BME280;9379;52.134;11.576;2024-01-07T05:59:49;101491.25;;;0.14;81.50
18500;BME280;9379;52.134;11.576;2024-01-07T06:02:17;101497.25;;;0.44;81.90
18500;BME280;9379;52.134;11.576;2024-01-07T06:04:44;101505.09;;;0.44;82.07
18500;BME280;9379;52.134;11.576;2024-01-07T06:07:11;101513.09;;;0.66;81.34
18500;BME280;9379;52.134;11.576;2024-01-07T06:09:39;101512.13;;;0.70;80.80
18500;BME280;9379;52.134;11.576;2024-01-07T06:12:06;101523.78;;;0.86;80.47
18500;BME280;9379;52.134;11.576;2024-01-07T06:14:33;101516.44;;;0.98;80.73
18500;BME280;9379;52.134;11.576;2024-01-07T06:17:00;101526.56;;;0.82;80.87
18500;BME280;9379;52.134;11.576;2024-01-07T06:19:27;101530.91;;;0.27;80.66
18500;BME280;9379;52.134;11.576;2024-01-07T06:21:54;101531.94;;;0.21;80.51
18500;BME280;9379;52.134;11.576;2024-01-07T06:24:21;101536.25;;;0.24;82.16
18500;BME280;9379;52.134;11.576;2024-01-07T06:26:49;101534.56;;;0.21;80.51
18500;BME280;9379;52.134;11.576;2024-01-07T06:29:16;101549.44;;;0.19;80.71
18500;BME280;9379;52.134;11.576;2024-01-07T06:31:44;101549.31;;;-0.06;81.21
18500;BME280;9379;52.134;11.576;2024-01-07T06:34:12;101565.16;;;-0.12;81.00
18500;BME280;9379;52.134;11.576;2024-01-07T06:36:39;101558.94;;;0.23;81.81
18500;BME280;9379;52.134;11.576;2024-01-07T06:39:06;101569.22;;;-0.02;81.02
18500;BME280;9379;52.134;11.576;2024-01-07T06:41:34;101570.72;;;0.37;80.74
18500;BME280;9379;52.134;11.576;2024-01-07T06:44:02;101571.78;;;0.29;79.53
18500;BME280;9379;52.134;11.576;2024-01-07T06:46:29;101573.03;;;0.18;81.10
18500;BME280;9379;52.134;11.576;2024-01-07T06:48:56;101585.09;;;0.22;81.73
18500;BME280;9379;52.134;11.576;2024-01-07T06:51:23;101587.75;;;0.20;80.84
18500;BME280;9379;52.134;11.576;2024-01-07T06:53:50;101583.84;;;0.35;80.23
18500;BME280;9379;52.134;11.576;2024-01-07T06:56:17;101582.84;;;0.39;80.75
18500;BME280;9379;52.134;11.576;2024-01-07T06:58:44;101586.13;;;0.16;80.93
18500;BME280;9379;52.134;11.576;2024-01-07T07:01:12;101587.44;;;0.31;80.51
18500;BME280;9379;52.134;11.576;2024-01-07T07:03:40;101588.03;;;0.41;80.67
18500;BME280;9379;52.134;11.576;2024-01-07T07:06:07;101593.41;;;0.35;80.89
18500;BME280;9379;52.134;11.576;2024-01-07T07:08:34;101607.09;;;0.15;80.48
18500;BME280;9379;52.134;11.576;2024-01-07T07:11:00;101599.22;;;0.44;80.88
18500;BME280;9379;52.134;11.576;2024-01-07T07:13:27;101602.97;;;0.93;79.57
18500;BME280;9379;52.134;11.576;2024-01-07T07:15:54;101604.47;;;0.44;79.62
18500;BME280;9379;52.134;11.576;2024-01-07T07:18:22;101610.06;;;0.32;79.82
18500;BME280;9379;52.134;11.576;2024-01-07T07:20:49;101616.88;;;0.66;80.20
18500;BME280;9379;52.134;11.576;2024-01-07T07:23:17;101619.50;;;0.66;79.42
18500;BME280;9379;52.134;11.576;2024-01-07T07:25:44;101619.66;;;0.61;80.67
18500;BME280;9379;52.134;11.576;2024-01-07T07:28:11;101610.38;;;0.79;81.78
18500;BME280;9379;52.134;11.576;2024-01-07T07:30:38;101626.47;;;0.95;80.54
18500;BME280;9379;52.134;11.576;2024-01-07T07:33:05;101621.91;;;0.44;80.70
18500;BME280;9379;52.134;11.576;2024-01-07T07:35:33;101633.84;;;0.82;81.06
18500;BME280;9379;52.134;11.576;2024-01-07T07:38:00;101639.44;;;0.98;79.99
18500;BME280;9379;52.134;11.576;2024-01-07T07:40:27;101645.28;;;0.50;80.67
18500;BME280;9379;52.134;11.576;2024-01-07T07:42:54;101649.66;;;0.77;81.46
18500;BME280;9379;52.134;11.576;2024-01-07T07:45:21;101646.16;;;1.06;81.25
18500;BME280;9379;52.134;11.576;2024-01-07T07:47:48;101657.75;;;0.98;80.12
18500;BME280;9379;52.134;11.576;2024-01-07T07:50:14;101658.44;;;0.76;79.53
18500;BME280;9379;52.134;11.576;2024-01-07T07:52:43;101662.59;;;0.83;79.81
18500;BME280;9379;52.134;11.576;2024-01-07T07:55:10;101660.22;;;1.02;81.23
18500;BME280;9379;52.134;11.576;2024-01-07T07:57:37;101663.09;;;0.95;79.76
18500;BME280;9379;52.134;11.576;2024-01-07T08:00:05;101667.06;;;0.78;80.71
18500;BME280;9379;52.134;11.576;2024-01-07T08:02:32;101667.44;;;0.96;81.19
18500;BME280;9379;52.134;11.576;2024-01-07T08:04:59;101667.28;;;1.28;82.10
18500;BME280;9379;52.134;11.576;2024-01-07T08:07:26;101658.06;;;1.68;80.45
18500;BME280;9379;52.134;11.576;2024-01-07T08:09:54;101662.50;;;1.66;78.88
18500;BME280;9379;52.134;11.576;2024-01-07T08:12:22;101665.00;;;1.69;78.68
18500;BME280;9379;52.134;11.576;2024-01-07T08:14:49;101662.06;;;1.53;80.25
18500;BME280;9379;52.134;11.576;2024-01-07T08:17:16;101666.75;;;1.17;80.45
18500;BME280;9379;52.134;11.576;2024-01-07T08:19:44;101667.28;;;1.28;79.70
18500;BME280;9379;52.134;11.576;2024-01-07T08:22:12;101668.75;;;1.09;79.94
18500;BME280;9379;52.134;11.576;2024-01-07T08:24:39;101682.22;;;0.97;81.04
18500;BME280;9379;52.134;11.576;2024-01-07T08:27:08;101683.84;;;1.01;80.59
18500;BME280;9379;52.134;11.576;2024-01-07T08:29:35;101682.06;;;1.29;80.91
18500;BME280;9379;52.134;11.576;2024-01-07T08:32:02;101689.94;;;1.29;80.91
18500;BME280;9379;52.134;11.576;2024-01-07T08:34:29;101685.97;;;1.69;79.28
18500;BME280;9379;52.134;11.576;2024-01-07T08:36:56;101687.50;;;1.23;79.88
18500;BME280;9379;52.134;11.576;2024-01-07T08:39:23;101687.66;;;1.45;79.38
18500;BME280;9379;52.134;11.576;2024-01-07T08:41:51;101695.75;;;1.37;80.60
18500;BME280;9379;52.134;11.576;2024-01-07T08:54:26;101712.47;;;1.60;80.99
18500;BME280;9379;52.134;11.576;2024-01-07T08:56:53;101712.13;;;1.70;80.15
18500;BME280;9379;52.134;11.576;2024-01-07T08:59:20;101712.31;;;1.39;79.86
18500;BME280;9379;52.134;11.576;2024-01-07T09:01:47;101722.38;;;1.24;79.12
18500;BME280;9379;52.134;11.576;2024-01-07T09:04:14;101718.13;;;1.48;80.79
18500;BME280;9379;52.134;11.576;2024-01-07T09:06:42;101724.28;;;1.46;80.03
18500;BME280;9379;52.134;11.576;2024-01-07T09:09:08;101727.53;;;1.80;79.00
18500;BME280;9379;52.134;11.576;2024-01-07T09:11:37;101731.16;;;1.51;79.54
18500;BME280;9379;52.134;11.576;2024-01-07T09:14:04;101739.69;;;1.29;80.80
18500;BME280;9379;52.134;11.576;2024-01-07T09:16:31;101733.03;;;1.45;80.94
18500;BME280;9379;52.134;11.576;2024-01-07T09:18:58;101732.03;;;1.76;80.66
18500;BME280;9379;52.134;11.576;2024-01-07T09:21:25;101741.50;;;1.80;79.90
18500;BME280;9379;52.134;11.576;2024-01-07T09:23:52;101735.59;;;2.00;80.23
18500;BME280;9379;52.134;11.576;2024-01-07T09:26:18;101741.19;;;1.89;78.96
18500;BME280;9379;52.134;11.576;2024-01-07T09:28:47;101742.13;;;1.88;78.78
18500;BME280;9379;52.134;11.576;2024-01-07T09:31:14;101750.31;;;2.04;80.82
18500;BME280;9379;52.134;11.576;2024-01-07T09:33:41;101748.00;;;2.45;79.02
18500;BME280;9379;52.134;11.576;2024-01-07T09:36:08;101748.56;;;2.53;79.50
18500;BME280;9379;52.134;11.576;2024-01-07T09:38:35;101750.31;;;2.29;79.69
18500;BME280;9379;52.134;11.576;2024-01-07T09:41:03;101750.91;;;2.12;79.24
18500;BME280;9379;52.134;11.576;2024-01-07T09:43:30;101750.09;;;2.10;78.98
18500;BME280;9379;52.134;11.576;2024-01-07T09:45:58;101754.06;;;1.97;80.48
18500;BME280;9379;52.134;11.576;2024-01-07T09:48:26;101767.19;;;1.95;80.80
18500;BME280;9379;52.134;11.576;2024-01-07T09:50:53;101750.88;;;1.87;79.92
18500;BME280;9379;52.134;11.576;2024-01-07T09:53:20;101760.19;;;1.96;80.22
18500;BME280;9379;52.134;11.576;2024-01-07T09:55:56;101756.25;;;1.83;79.64
18500;BME280;9379;52.134;11.576;2024-01-07T09:58:25;101753.72;;;1.55;79.51
18500;BME280;9379;52.134;11.576;2024-01-07T10:00:52;101767.75;;;1.24;81.12
18500;BME280;9379;52.134;11.576;2024-01-07T10:03:21;101768.00;;;1.44;80.20
18500;BME280;9379;52.134;11.576;2024-01-07T10:05:48;101762.41;;;1.82;81.42
18500;BME280;9379;52.134;11.576;2024-01-07T10:08:14;101763.56;;;1.74;79.97
18500;BME280;9379;52.134;11.576;2024-01-07T10:10:41;101768.41;;;1.85;80.31
18500;BME280;9379;52.134;11.576;2024-01-07T10:13:09;101758.44;;;1.70;80.84
18500;BME280;9379;52.134;11.576;2024-01-07T10:15:35;101767.00;;;1.49;81.70
18500;BME280;9379;52.134;11.576;2024-01-07T10:18:03;101762.78;;;1.71;79.06
18500;BME280;9379;52.134;11.576;2024-01-07T10:20:33;101775.72;;;2.02;79.05
18500;BME280;9379;52.134;11.576;2024-01-07T10:23:00;101767.38;;;1.91;78.16
18500;BME280;9379;52.134;11.576;2024-01-07T10:25:30;101776.88;;;1.40;80.21
18500;BME280;9379;52.134;11.576;2024-01-07T10:27:59;101774.72;;;1.80;81.15
18500;BME280;9379;52.134;11.576;2024-01-07T10:30:26;101773.53;;;1.35;80.29
18500;BME280;9379;52.134;11.576;2024-01-07T10:32:55;101773.91;;;1.78;80.38
18500;BME280;9379;52.134;11.576;2024-01-07T10:35:28;101764.69;;;1.66;80.73
18500;BME280;9379;52.134;11.576;2024-01-07T10:37:57;101764.34;;;1.77;79.88
18500;BME280;9379;52.134;11.576;2024-01-07T10:40:26;101770.97;;;1.60;80.61
18500;BME280;9379;52.134;11.576;2024-01-07T10:42:55;101762.00;;;1.94;80.89
18500;BME280;9379;52.134;11.576;2024-01-07T10:45:22;101757.75;;;2.16;79.88
18500;BME280;9379;52.134;11.576;2024-01-07T10:47:50;101767.56;;;1.85;80.49
18500;BME280;9379;52.134;11.576;2024-01-07T10:50:17;101758.44;;;1.70;79.80
18500;BME280;9379;52.134;11.576;2024-01-07T10:52:49;101770.13;;;1.60;80.10
18500;BME280;9379;52.134;11.576;2024-01-07T10:55:18;101777.00;;;1.90;81.55
18500;BME280;9379;52.134;11.576;2024-01-07T10:57:47;101770.34;;;1.80;80.65
18500;BME280;9379;52.134;11.576;2024-01-07T11:00:16;101775.97;;;2.21;78.96
18500;BME280;9379;52.134;11.576;2024-01-07T11:03:02;101771.03;;;2.37;80.34
18500;BME280;9379;52.134;11.576;2024-01-07T11:05:38;101778.72;;;2.41;80.04
18500;BME280;9379;52.134;11.576;2024-01-07T11:08:13;101774.34;;;2.67;79.26
18500;BME280;9379;52.134;11.576;2024-01-07T11:10:48;101761.97;;;2.45;80.89
18500;BME280;9379;52.134;11.576;2024-01-07T11:13:33;101767.25;;;2.69;80.14
18500;BME280;9379;52.134;11.576;2024-01-07T11:16:02;101763.38;;;2.79;80.10
18500;BME280;9379;52.134;11.576;2024-01-07T11:18:29;101763.38;;;2.79;79.71
18500;BME280;9379;52.134;11.576;2024-01-07T11:20:59;101765.47;;;2.92;80.28
18500;BME280;9379;52.134;11.576;2024-01-07T11:23:28;101764.38;;;2.98;79.95
18500;BME280;9379;52.134;11.576;2024-01-07T11:25:57;101764.72;;;2.89;81.21
18500;BME280;9379;52.134;11.576;2024-01-07T11:28:46;101756.84;;;2.89;81.26
18500;BME280;9379;52.134;11.576;2024-01-07T11:31:15;101757.72;;;2.89;81.06
18500;BME280;9379;52.134;11.576;2024-01-07T11:33:42;101758.28;;;2.98;82.10
18500;BME280;9379;52.134;11.576;2024-01-07T11:36:11;101754.25;;;3.11;80.77
18500;BME280;9379;52.134;11.576;2024-01-07T11:38:42;101755.25;;;3.52;79.41
18500;BME280;9379;52.134;11.576;2024-01-07T11:41:11;101751.78;;;3.30;81.04
18500;BME280;9379;52.134;11.576;2024-01-07T11:43:51;101757.13;;;3.05;79.27
18500;BME280;9379;52.134;11.576;2024-01-07T11:46:19;101750.91;;;2.84;80.79
18500;BME280;9379;52.134;11.576;2024-01-07T11:48:46;101758.53;;;2.91;80.84
18500;BME280;9379;52.134;11.576;2024-01-07T11:51:14;101747.75;;;2.98;79.51
18500;BME280;9379;52.134;11.576;2024-01-07T11:53:41;101751.59;;;2.89;81.60
18500;BME280;9379;52.134;11.576;2024-01-07T11:56:08;101757.66;;;2.91;80.93
18500;BME280;9379;52.134;11.576;2024-01-07T11:58:37;101762.22;;;2.86;80.89
18500;BME280;9379;52.134;11.576;2024-01-07T12:01:04;101752.97;;;2.76;80.59
18500;BME280;9379;52.134;11.576;2024-01-07T12:03:31;101755.03;;;2.91;79.63
18500;BME280;9379;52.134;11.576;2024-01-07T12:05:59;101750.34;;;2.76;80.48
18500;BME280;9379;52.134;11.576;2024-01-07T12:08:26;101753.53;;;3.07;79.89
18500;BME280;9379;52.134;11.576;2024-01-07T12:10:53;101754.91;;;2.94;80.45
18500;BME280;9379;52.134;11.576;2024-01-07T12:13:21;101763.19;;;2.83;80.73
18500;BME280;9379;52.134;11.576;2024-01-07T12:15:49;101753.72;;;2.79;81.73
18500;BME280;9379;52.134;11.576;2024-01-07T12:18:16;101762.91;;;2.68;81.41
18500;BME280;9379;52.134;11.576;2024-01-07T12:20:55;101755.66;;;2.98;82.43
18500;BME280;9379;52.134;11.576;2024-01-07T12:23:22;101756.22;;;2.82;81.61
18500;BME280;9379;52.134;11.576;2024-01-07T12:25:49;101761.53;;;2.81;83.03
18500;BME280;9379;52.134;11.576;2024-01-07T12:28:17;101759.25;;;2.95;81.90
18500;BME280;9379;52.134;11.576;2024-01-07T12:30:44;101752.66;;;3.07;81.93
18500;BME280;9379;52.134;11.576;2024-01-07T12:33:15;101757.19;;;3.03;81.86
18500;BME280;9379;52.134;11.576;2024-01-07T12:35:44;101756.53;;;3.20;81.97
18500;BME280;9379;52.134;11.576;2024-01-07T12:38:11;101748.16;;;3.10;82.56
18500;BME280;9379;52.134;11.576;2024-01-07T12:40:38;101752.38;;;3.14;83.21
18500;BME280;9379;52.134;11.576;2024-01-07T12:43:05;101746.56;;;3.06;83.56
18500;BME280;9379;52.134;11.576;2024-01-07T12:45:33;101748.16;;;3.10;82.83
18500;BME280;9379;52.134;11.576;2024-01-07T12:47:59;101750.03;;;3.07;83.21
18500;BME280;9379;52.134;11.576;2024-01-07T12:50:29;101758.22;;;2.99;82.53
18500;BME280;9379;52.134;11.576;2024-01-07T12:52:57;101745.72;;;3.28;82.43
18500;BME280;9379;52.134;11.576;2024-01-07T12:55:24;101756.59;;;3.40;82.37
18500;BME280;9379;52.134;11.576;2024-01-07T12:57:51;101754.81;;;3.19;84.61
18500;BME280;9379;52.134;11.576;2024-01-07T13:00:19;101748.72;;;3.18;82.63
18500;BME280;9379;52.134;11.576;2024-01-07T13:02:47;101745.53;;;3.10;84.76
18500;BME280;9379;52.134;11.576;2024-01-07T13:05:14;101754.31;;;3.09;84.72
18500;BME280;9379;52.134;11.576;2024-01-07T13:07:42;101757.53;;;2.94;84.10
18500;BME280;9379;52.134;11.576;2024-01-07T13:10:09;101758.22;;;2.99;84.58
18500;BME280;9379;52.134;11.576;2024-01-07T13:12:36;101759.06;;;3.00;83.56